createdAt,value
2022-08-27T00:02:07.524Z,38.85
2022-08-27T00:04:36.829Z,31.05
2022-08-27T00:07:05.894Z,31.80
2022-08-27T00:12:19.135Z,56.05
2022-08-27T00:14:46.978Z,55.45
2022-08-27T00:17:16.149Z,44.50
2022-08-27T00:19:44.684Z,39.70
2022-08-27T00:22:12.893Z,57.40
2022-08-27T00:24:48.712Z,55.30
2022-08-27T00:27:18.171Z,54.35
2022-08-27T00:29:47.442Z,52.30
2022-08-27T00:32:16.537Z,50.22
2022-08-27T00:34:44.784Z,60.85
2022-08-27T00:37:12.757Z,61.28
2022-08-27T00:39:40.618Z,64.90
2022-08-27T00:42:10.088Z,61.37
2022-08-27T00:44:46.491Z,61.72
2022-08-27T00:47:20.328Z,52.50
2022-08-27T00:49:56.252Z,47.45
2022-08-27T00:52:40.913Z,60.17
2022-08-27T00:55:22.780Z,67.97
2022-08-27T00:58:03.314Z,65.20
2022-08-27T01:00:34.213Z,62.17
2022-08-27T01:03:02.553Z,66.75
2022-08-27T01:05:30.787Z,69.20
2022-08-27T01:08:06.066Z,69.70
2022-08-27T01:10:34.983Z,63.53
2022-08-27T01:13:03.091Z,57.65
2022-08-27T01:15:31.644Z,59.50
2022-08-27T01:18:01.288Z,65.37
2022-08-27T01:20:36.059Z,65.50
2022-08-27T01:23:25.622Z,44.58
2022-08-27T01:25:53.756Z,40.95
2022-08-27T01:28:23.640Z,41.95
2022-08-27T01:30:57.167Z,41.70
2022-08-27T01:33:25.280Z,61.10
2022-08-27T01:35:53.361Z,97.75
2022-08-27T01:38:30.937Z,76.97
2022-08-27T01:41:01.480Z,77.57
2022-08-27T01:43:31.613Z,76.90
2022-08-27T01:45:59.803Z,81.05
2022-08-27T01:48:30.583Z,84.82
2022-08-27T01:50:58.398Z,105.82
2022-08-27T01:53:27.723Z,99.70
2022-08-27T01:55:55.676Z,91.47
2022-08-27T01:58:27.273Z,78.07
2022-08-27T02:00:59.825Z,68.28
2022-08-27T02:03:28.038Z,60.92
2022-08-27T02:05:56.076Z,80.68
2022-08-27T02:08:24.250Z,70.20
2022-08-27T02:10:52.569Z,67.28
2022-08-27T02:13:20.430Z,79.00
2022-08-27T02:15:48.250Z,66.07
2022-08-27T02:18:16.823Z,88.12
2022-08-27T02:20:48.896Z,85.05
2022-08-27T02:23:18.493Z,58.53
2022-08-27T02:25:49.030Z,63.22
2022-08-27T02:28:17.234Z,72.47
2022-08-27T02:30:45.175Z,80.60
2022-08-27T02:33:13.895Z,65.47
2022-08-27T02:35:44.573Z,70.40
2022-08-27T02:38:14.456Z,77.68
2022-08-27T02:40:42.649Z,68.93
2022-08-27T02:43:15.822Z,90.40
2022-08-27T02:45:44.318Z,66.55
2022-08-27T02:48:12.688Z,80.32
2022-08-27T02:50:40.685Z,82.20
2022-08-27T02:53:09.210Z,72.20
2022-08-27T02:55:37.634Z,101.87
2022-08-27T02:58:05.644Z,99.82
2022-08-27T03:00:34.078Z,89.95
2022-08-27T03:03:03.089Z,79.45
2022-08-27T03:05:31.041Z,82.45
2022-08-27T03:08:00.284Z,69.12
2022-08-27T03:10:28.060Z,91.28
2022-08-27T03:12:57.563Z,96.95
2022-08-27T03:15:26.052Z,75.95
2022-08-27T03:18:12.379Z,99.45
2022-08-27T03:20:42.684Z,71.40
2022-08-27T03:23:11.545Z,82.40
2022-08-27T03:25:39.489Z,55.25
2022-08-27T03:28:22.400Z,84.82
2022-08-27T03:30:54.769Z,87.70
2022-08-27T03:33:23.218Z,58.92
2022-08-27T03:35:52.163Z,87.12
2022-08-27T03:38:20.719Z,81.72
2022-08-27T03:40:49.744Z,66.10
2022-08-27T03:43:19.388Z,44.25
2022-08-27T03:46:00.561Z,59.20
2022-08-27T03:51:05.573Z,75.30
2022-08-27T03:53:33.744Z,70.53
2022-08-27T03:56:01.564Z,54.75
2022-08-27T03:58:29.457Z,47.40
2022-08-27T04:00:57.718Z,55.17
2022-08-27T04:03:25.922Z,48.15
2022-08-27T04:05:57.275Z,50.45
2022-08-27T04:08:26.547Z,43.53
2022-08-27T04:10:55.296Z,53.80
2022-08-27T04:13:24.117Z,55.15
2022-08-27T04:15:54.759Z,63.28
2022-08-27T04:18:22.916Z,49.10
2022-08-27T04:20:52.891Z,48.75
2022-08-27T04:23:21.819Z,52.08
2022-08-27T04:25:49.665Z,73.03
2022-08-27T04:28:18.877Z,81.47
2022-08-27T04:30:47.741Z,68.05
2022-08-27T04:36:04.662Z,77.18
2022-08-27T04:38:33.757Z,66.62
2022-08-27T04:41:22.758Z,96.45
2022-08-27T04:43:56.750Z,60.58
2022-08-27T04:46:29.061Z,87.95
2022-08-27T04:48:59.694Z,104.13
2022-08-27T04:51:29.408Z,82.45
2022-08-27T04:54:01.018Z,109.95
2022-08-27T04:56:35.064Z,114.32
2022-08-27T04:59:05.687Z,125.95
2022-08-27T05:01:33.981Z,92.90
2022-08-27T05:04:15.081Z,103.25
2022-08-27T05:06:45.783Z,121.00
2022-08-27T05:09:14.834Z,141.85
2022-08-27T05:11:44.207Z,107.72
2022-08-27T05:14:16.569Z,134.05
2022-08-27T05:16:44.903Z,129.95
2022-08-27T05:19:15.693Z,98.85
2022-08-27T05:21:51.267Z,72.57
2022-08-27T05:24:20.058Z,145.27
2022-08-27T05:26:48.594Z,108.15
2022-08-27T05:29:17.297Z,131.57
2022-08-27T05:31:48.262Z,141.48
2022-08-27T05:34:18.690Z,136.75
2022-08-27T05:36:53.858Z,136.07
2022-08-27T05:39:21.874Z,132.63
2022-08-27T05:41:49.816Z,99.35
2022-08-27T05:44:40.148Z,129.93
2022-08-27T05:47:06.296Z,112.88
2022-08-27T05:49:34.543Z,107.30
2022-08-27T05:52:02.587Z,103.47
2022-08-27T05:54:30.411Z,123.00
2022-08-27T05:56:58.788Z,100.28
2022-08-27T05:59:45.017Z,106.97
2022-08-27T06:02:13.380Z,115.45
2022-08-27T06:04:41.775Z,109.35
2022-08-27T06:07:11.336Z,105.18
2022-08-27T06:09:40.041Z,97.88
2022-08-27T06:12:10.713Z,114.10
2022-08-27T06:14:39.090Z,116.75
2022-08-27T06:17:07.067Z,95.55
2022-08-27T06:19:36.731Z,112.62
2022-08-27T06:22:09.795Z,113.25
2022-08-27T06:24:42.805Z,109.45
2022-08-27T06:27:14.597Z,100.25
2022-08-27T06:29:43.350Z,92.25
2022-08-27T06:32:12.421Z,88.68
2022-08-27T06:34:40.425Z,101.47
2022-08-27T06:37:08.880Z,88.10
2022-08-27T06:39:40.553Z,80.93
2022-08-27T06:42:12.790Z,86.28
2022-08-27T06:44:41.586Z,99.40
2022-08-27T06:47:10.308Z,87.03
2022-08-27T06:49:41.015Z,73.60
2022-08-27T06:52:09.477Z,81.07
2022-08-27T06:54:37.331Z,72.37
2022-08-27T06:57:05.319Z,71.78
2022-08-27T06:59:33.760Z,67.90
2022-08-27T07:02:01.949Z,64.78
2022-08-27T07:04:32.802Z,66.72
2022-08-27T07:07:02.766Z,62.62
2022-08-27T07:09:32.852Z,61.60
2022-08-27T07:12:01.809Z,60.33
2022-08-27T07:14:35.477Z,54.67
2022-08-27T07:17:10.728Z,54.85
2022-08-27T07:19:41.132Z,50.38
2022-08-27T07:22:09.761Z,50.30
2022-08-27T07:24:38.471Z,48.05
2022-08-27T07:27:07.031Z,48.00
2022-08-27T07:29:35.831Z,47.95
2022-08-27T07:32:04.960Z,41.45
2022-08-27T07:34:33.011Z,40.78
2022-08-27T07:37:03.851Z,40.65
2022-08-27T07:39:31.794Z,38.03
2022-08-27T07:42:18.477Z,39.85
2022-08-27T07:44:46.913Z,37.60
2022-08-27T07:47:14.911Z,36.42
2022-08-27T07:49:42.875Z,31.05
2022-08-27T07:52:12.193Z,29.40
2022-08-27T07:54:41.462Z,29.65
2022-08-27T07:57:12.665Z,26.48
2022-08-27T07:59:41.017Z,26.27
2022-08-27T08:04:55.102Z,23.77
2022-08-27T08:07:23.424Z,20.02
2022-08-27T08:09:51.417Z,24.92
2022-08-27T08:12:26.397Z,22.80
2022-08-27T08:14:58.224Z,23.30
2022-08-27T08:17:26.864Z,23.35
2022-08-27T08:20:17.474Z,25.50
2022-08-27T08:22:45.584Z,24.70
2022-08-27T08:25:14.511Z,23.15
2022-08-27T08:27:43.328Z,24.80
2022-08-27T08:30:15.705Z,24.10
2022-08-27T08:32:44.397Z,23.55
2022-08-27T08:35:12.696Z,25.67
2022-08-27T08:37:44.038Z,25.85
2022-08-27T08:40:31.450Z,24.12
2022-08-27T08:43:01.049Z,23.27
2022-08-27T08:45:35.080Z,25.92
2022-08-27T08:48:04.805Z,24.45
2022-08-27T08:50:44.965Z,22.13
2022-08-27T08:53:20.496Z,20.15
2022-08-27T08:55:53.394Z,20.05
2022-08-27T08:58:39.996Z,20.23
2022-08-27T09:01:10.451Z,19.15
2022-08-27T09:03:43.007Z,18.65
2022-08-27T09:06:21.634Z,19.98
2022-08-27T09:08:50.086Z,19.55
2022-08-27T09:11:40.085Z,17.50
2022-08-27T09:14:17.143Z,16.17
2022-08-27T09:16:45.127Z,16.48
2022-08-27T09:19:14.877Z,15.90
2022-08-27T09:21:46.235Z,16.23
2022-08-27T09:24:37.696Z,15.93
2022-08-27T09:27:05.919Z,14.82
2022-08-27T09:29:34.477Z,15.55
2022-08-27T09:32:10.354Z,16.37
2022-08-27T09:34:41.351Z,13.98
2022-08-27T09:37:21.124Z,16.93
2022-08-27T09:39:57.371Z,12.40
2022-08-27T09:43:02.335Z,13.90
2022-08-27T09:45:31.673Z,11.77
2022-08-27T09:48:15.433Z,10.70
2022-08-27T09:50:48.773Z,12.13
2022-08-27T09:53:46.123Z,14.50
2022-08-27T09:56:31.642Z,12.82
2022-08-27T09:59:21.046Z,13.62
2022-08-27T10:01:54.736Z,12.20
2022-08-27T10:04:50.485Z,13.68
2022-08-27T10:07:24.678Z,9.65
2022-08-27T10:10:08.952Z,11.52
2022-08-27T10:13:00.098Z,11.70
2022-08-27T10:15:43.232Z,12.30
2022-08-27T10:18:34.676Z,10.98
2022-08-27T10:21:19.746Z,12.65
2022-08-27T10:23:47.887Z,12.37
2022-08-27T10:26:33.279Z,12.40
2022-08-27T10:32:42.517Z,12.80
2022-08-27T10:35:19.655Z,13.15
2022-08-27T10:37:48.031Z,16.92
2022-08-27T10:40:40.334Z,16.75
2022-08-27T10:43:08.648Z,18.27
2022-08-27T10:45:54.870Z,18.60
2022-08-27T10:48:40.042Z,16.77
2022-08-27T10:51:32.747Z,18.70
2022-08-27T10:54:20.806Z,17.98
2022-08-27T10:59:51.549Z,19.50
2022-08-27T11:02:36.887Z,19.70
2022-08-27T11:05:20.144Z,18.23
2022-08-27T11:07:54.168Z,15.63
2022-08-27T11:10:28.948Z,15.88
2022-08-27T11:13:04.314Z,14.52
2022-08-27T11:15:37.295Z,17.85
2022-08-27T11:18:17.905Z,18.73
2022-08-27T11:20:54.200Z,23.77
2022-08-27T11:23:46.242Z,23.55
2022-08-27T11:26:15.159Z,22.65
2022-08-27T11:28:54.474Z,24.05
2022-08-27T11:31:33.605Z,26.20
2022-08-27T11:34:31.994Z,22.62
2022-08-27T11:37:05.842Z,23.67
2022-08-27T11:39:43.620Z,24.65
2022-08-27T11:42:20.206Z,22.45
2022-08-27T11:44:54.825Z,24.55
2022-08-27T11:47:26.320Z,21.45
2022-08-27T11:49:56.614Z,21.10
2022-08-27T11:52:31.842Z,26.08
2022-08-27T11:55:21.397Z,25.37
2022-08-27T12:00:53.920Z,24.40
2022-08-27T12:03:22.412Z,24.58
2022-08-27T12:05:53.264Z,25.42
2022-08-27T12:08:24.864Z,25.80
2022-08-27T12:11:17.985Z,24.17
2022-08-27T12:14:13.492Z,25.73
2022-08-27T12:17:01.564Z,28.67
2022-08-27T12:19:32.160Z,27.42
2022-08-27T12:22:34.720Z,28.63
2022-08-27T12:25:04.841Z,30.12
2022-08-27T12:27:37.354Z,30.77
2022-08-27T12:30:28.346Z,31.62
2022-08-27T12:32:58.332Z,30.20
2022-08-27T12:35:44.540Z,25.10
2022-08-27T12:38:13.064Z,29.37
2022-08-27T12:40:51.119Z,29.58
2022-08-27T12:43:27.020Z,27.15
2022-08-27T12:46:02.564Z,29.08
2022-08-27T12:49:02.753Z,29.95
2022-08-27T12:51:48.932Z,32.13
2022-08-27T12:54:33.389Z,35.08
2022-08-27T12:57:33.806Z,34.85
2022-08-27T13:00:24.152Z,35.25
2022-08-27T13:03:20.720Z,32.75
2022-08-27T13:05:51.525Z,32.85
2022-08-27T13:08:34.923Z,32.58
2022-08-27T13:11:18.184Z,31.37
2022-08-27T13:13:46.883Z,35.30
2022-08-27T13:16:19.303Z,34.88
2022-08-27T13:18:51.605Z,34.72
2022-08-27T13:21:28.591Z,33.35
2022-08-27T13:23:59.150Z,31.98
2022-08-27T13:26:32.022Z,33.15
2022-08-27T13:29:04.881Z,31.48
2022-08-27T13:31:34.880Z,31.17
2022-08-27T13:34:06.379Z,31.30
2022-08-27T13:39:07.745Z,31.73
2022-08-27T13:41:38.976Z,30.92
2022-08-27T13:47:22.659Z,33.03
2022-08-27T13:49:51.740Z,34.10
2022-08-27T13:52:34.503Z,35.58
2022-08-27T13:55:09.828Z,37.03
2022-08-27T13:57:50.371Z,38.08
2022-08-27T14:00:27.465Z,35.15
2022-08-27T14:02:59.026Z,36.28
2022-08-27T14:05:30.489Z,33.70
2022-08-27T14:08:02.571Z,35.25
2022-08-27T14:10:41.249Z,35.22
2022-08-27T14:13:18.355Z,33.78
2022-08-27T14:15:52.391Z,35.13
2022-08-27T14:18:58.402Z,30.65
2022-08-27T14:21:24.281Z,31.25
2022-08-27T14:23:54.452Z,35.97
2022-08-27T14:26:23.094Z,35.08
2022-08-27T14:28:51.386Z,36.60
2022-08-27T14:31:21.172Z,38.55
2022-08-27T14:33:50.461Z,36.50
2022-08-27T14:36:20.707Z,35.50
2022-08-27T14:38:50.733Z,35.33
2022-08-27T14:41:21.634Z,37.22
2022-08-27T14:43:50.527Z,39.22
2022-08-27T14:46:28.241Z,38.17
2022-08-27T14:48:59.021Z,38.40
2022-08-27T14:51:32.952Z,36.78
2022-08-27T14:54:02.355Z,36.90
2022-08-27T14:56:31.609Z,41.35
2022-08-27T14:59:18.543Z,39.55
2022-08-27T15:01:47.286Z,41.58
2022-08-27T15:04:16.114Z,40.95
2022-08-27T15:06:45.255Z,45.17
2022-08-27T15:09:13.806Z,45.97
2022-08-27T15:11:42.133Z,46.85
2022-08-27T15:14:16.596Z,48.65
2022-08-27T15:16:45.102Z,52.65
2022-08-27T15:19:15.920Z,59.85
2022-08-27T15:21:47.548Z,55.50
2022-08-27T15:24:19.937Z,56.25
2022-08-27T15:26:49.194Z,51.88
2022-08-27T15:32:03.192Z,54.78
2022-08-27T15:34:31.689Z,46.63
2022-08-27T15:37:00.345Z,55.00
2022-08-27T15:39:29.803Z,55.65
2022-08-27T15:42:07.283Z,55.47
2022-08-27T15:44:37.827Z,61.25
2022-08-27T15:47:05.874Z,58.47
2022-08-27T15:49:33.882Z,53.75
2022-08-27T15:52:05.817Z,52.57
2022-08-27T15:54:34.181Z,55.65
2022-08-27T15:57:02.368Z,53.38
2022-08-27T15:59:33.520Z,54.75
2022-08-27T16:02:04.150Z,53.83
2022-08-27T16:04:35.911Z,53.63
2022-08-27T16:07:04.070Z,54.97
2022-08-27T16:09:32.541Z,51.00
2022-08-27T16:12:01.374Z,53.90
2022-08-27T16:14:29.344Z,54.45
2022-08-27T16:16:58.641Z,53.35
2022-08-27T16:19:26.915Z,54.78
2022-08-27T16:21:55.253Z,55.50
2022-08-27T16:24:23.695Z,58.05
2022-08-27T16:26:51.806Z,59.58
2022-08-27T16:29:19.737Z,59.90
2022-08-27T16:31:48.130Z,58.22
2022-08-27T16:34:21.977Z,61.28
2022-08-27T16:39:17.912Z,54.22
2022-08-27T16:41:46.217Z,58.92
2022-08-27T16:44:16.165Z,56.45
2022-08-27T16:46:44.133Z,58.08
2022-08-27T16:49:30.644Z,61.58
2022-08-27T16:52:00.440Z,58.40
2022-08-27T16:54:30.348Z,59.72
2022-08-27T16:56:59.881Z,63.25
2022-08-27T16:59:28.238Z,58.92
2022-08-27T17:01:57.438Z,59.78
2022-08-27T17:04:31.243Z,58.13
2022-08-27T17:07:03.282Z,58.75
2022-08-27T17:09:32.588Z,58.05
2022-08-27T17:12:04.763Z,57.62
2022-08-27T17:14:40.532Z,58.65
2022-08-27T17:19:38.212Z,60.20
2022-08-27T17:22:09.815Z,62.28
2022-08-27T17:24:38.197Z,60.28
2022-08-27T17:27:06.441Z,59.67
2022-08-27T17:29:34.640Z,59.78
2022-08-27T17:32:07.299Z,61.33
2022-08-27T17:34:36.383Z,61.70
2022-08-27T17:37:04.832Z,61.20
2022-08-27T17:39:32.977Z,59.38
2022-08-27T17:42:01.066Z,55.08
2022-08-27T17:44:33.730Z,64.22
2022-08-27T17:47:04.450Z,64.97
2022-08-27T17:49:33.417Z,56.28
2022-08-27T17:52:04.997Z,56.37
2022-08-27T17:54:42.711Z,57.05
2022-08-27T17:57:20.933Z,54.38
2022-08-27T17:59:50.669Z,55.92
2022-08-27T18:02:31.454Z,57.35
2022-08-27T18:05:00.404Z,60.65
2022-08-27T18:07:31.256Z,62.05
2022-08-27T18:09:59.846Z,60.92
2022-08-27T18:12:28.175Z,58.05
2022-08-27T18:15:14.675Z,63.22
2022-08-27T18:17:43.333Z,62.38
2022-08-27T18:20:14.217Z,61.85
2022-08-27T18:22:48.782Z,56.08
2022-08-27T18:25:20.243Z,58.10
2022-08-27T18:27:51.916Z,59.60
2022-08-27T18:30:20.880Z,54.70
2022-08-27T18:32:49.752Z,54.22
2022-08-27T18:35:24.039Z,56.72
2022-08-27T18:37:52.980Z,54.35
2022-08-27T18:40:23.802Z,55.33
2022-08-27T18:42:52.584Z,61.33
2022-08-27T18:45:26.973Z,55.12
2022-08-27T18:47:59.495Z,54.30
2022-08-27T18:50:28.092Z,49.90
2022-08-27T18:52:58.796Z,51.40
2022-08-27T18:55:28.534Z,51.33
2022-08-27T18:57:57.406Z,51.88
2022-08-27T19:00:27.335Z,51.78
2022-08-27T19:02:55.655Z,52.20
2022-08-27T19:05:27.123Z,51.90
2022-08-27T19:07:57.254Z,54.05
2022-08-27T19:13:12.624Z,52.65
2022-08-27T19:15:44.916Z,44.20
2022-08-27T19:18:16.233Z,52.72
2022-08-27T19:20:44.907Z,50.33
2022-08-27T19:23:13.106Z,50.12
2022-08-27T19:25:42.247Z,49.38
2022-08-27T19:28:10.823Z,48.35
2022-08-27T19:30:38.940Z,47.10
2022-08-27T19:33:07.093Z,46.60
2022-08-27T19:35:36.417Z,46.95
2022-08-27T19:38:05.055Z,43.63
2022-08-27T19:40:37.723Z,47.40
2022-08-27T19:43:05.913Z,43.95
2022-08-27T19:45:40.259Z,43.20
2022-08-27T19:48:09.294Z,40.00
2022-08-27T19:50:37.445Z,40.80
2022-08-27T19:53:05.668Z,41.10
2022-08-27T19:55:34.111Z,40.30
2022-08-27T19:58:02.284Z,46.53
2022-08-27T20:00:30.729Z,45.20
2022-08-27T20:02:59.143Z,46.92
2022-08-27T20:05:27.519Z,44.50
2022-08-27T20:07:55.628Z,40.00
2022-08-27T20:10:31.523Z,42.38
2022-08-27T20:13:06.520Z,38.00
2022-08-27T20:15:36.039Z,40.83
2022-08-27T20:18:07.511Z,41.67
2022-08-27T20:20:37.919Z,39.40
2022-08-27T20:23:07.177Z,40.92
2022-08-27T20:25:36.397Z,36.65
2022-08-27T20:28:34.973Z,35.72
2022-08-27T20:30:56.928Z,36.60
2022-08-27T20:33:27.324Z,37.30
2022-08-27T20:35:56.997Z,37.63
2022-08-27T20:38:25.641Z,37.97
2022-08-27T20:40:53.450Z,33.33
2022-08-27T20:43:21.289Z,36.58
2022-08-27T20:45:49.868Z,36.90
2022-08-27T20:48:17.896Z,32.92
2022-08-27T20:50:45.940Z,32.35
2022-08-27T20:53:14.480Z,33.30
2022-08-27T20:55:42.351Z,34.28
2022-08-27T20:58:29.014Z,34.38
2022-08-27T21:00:58.015Z,34.28
2022-08-27T21:03:26.213Z,37.78
2022-08-27T21:05:56.236Z,33.35
2022-08-27T21:08:24.541Z,33.88
2022-08-27T21:10:58.283Z,34.13
2022-08-27T21:13:28.609Z,34.72
2022-08-27T21:15:56.766Z,33.10
2022-08-27T21:18:29.666Z,33.15
2022-08-27T21:21:02.763Z,34.13
2022-08-27T21:23:31.170Z,34.50
2022-08-27T21:26:04.979Z,36.75
2022-08-27T21:28:32.975Z,38.85
2022-08-27T21:31:01.308Z,36.75
2022-08-27T21:33:29.290Z,36.53
2022-08-27T21:35:57.343Z,38.35
2022-08-27T21:38:26.382Z,37.33
2022-08-27T21:40:54.477Z,39.97
2022-08-27T21:43:22.569Z,38.22
2022-08-27T21:45:55.232Z,41.35
2022-08-27T21:48:23.616Z,41.37
2022-08-27T21:50:53.629Z,39.58
2022-08-27T21:53:22.748Z,44.15
2022-08-27T21:55:54.232Z,41.83
2022-08-27T21:58:26.240Z,44.70
2022-08-27T22:00:55.966Z,44.33
2022-08-27T22:03:25.573Z,45.40
2022-08-27T22:05:53.742Z,46.17
2022-08-27T22:08:23.016Z,48.75
2022-08-27T22:10:55.927Z,49.45
2022-08-27T22:13:24.264Z,57.85
2022-08-27T22:15:52.522Z,54.75
2022-08-27T22:18:20.534Z,56.53
2022-08-27T22:20:53.686Z,58.38
2022-08-27T22:23:22.538Z,65.07
2022-08-27T22:25:50.804Z,61.03
2022-08-27T22:28:19.581Z,57.08
2022-08-27T22:30:47.461Z,62.45
2022-08-27T22:33:16.161Z,63.45
2022-08-27T22:35:44.426Z,67.37
2022-08-27T22:38:12.542Z,64.93
2022-08-27T22:40:40.803Z,66.95
2022-08-27T22:43:09.653Z,63.67
2022-08-27T22:45:37.560Z,60.55
2022-08-27T22:48:05.457Z,63.53
2022-08-27T22:50:33.710Z,56.85
2022-08-27T22:53:01.605Z,57.53
2022-08-27T22:55:29.780Z,58.22
2022-08-27T22:57:58.000Z,57.33
2022-08-27T23:00:29.410Z,59.88
2022-08-27T23:02:58.229Z,56.92
2022-08-27T23:05:26.935Z,56.78
2022-08-27T23:07:55.471Z,56.13
2022-08-27T23:10:24.688Z,55.95
2022-08-27T23:12:54.388Z,56.45
2022-08-27T23:15:25.905Z,58.38
2022-08-27T23:17:55.806Z,52.40
2022-08-27T23:20:28.793Z,50.25
2022-08-27T23:22:57.605Z,49.85
2022-08-27T23:25:45.031Z,41.35
2022-08-27T23:28:14.986Z,48.17
2022-08-27T23:30:44.524Z,50.30
2022-08-27T23:35:59.526Z,50.70
2022-08-27T23:38:29.913Z,47.15
2022-08-27T23:40:59.147Z,45.42
2022-08-27T23:43:28.867Z,40.63
2022-08-27T23:46:00.909Z,46.67
2022-08-27T23:48:29.075Z,39.70
2022-08-27T23:50:57.088Z,46.85
2022-08-27T23:53:24.920Z,43.97
2022-08-27T23:55:53.139Z,43.20
2022-08-27T23:58:21.024Z,43.83
